Time;durP1;ratioP1;P1;durP2;ratioP2;P2;SDS_P1;SDS_P2;PMS_P1;PMS_P2;Temp;Humidity;BMP_temperature;BMP_pressure;BME280_temperature;BME280_humidity;BME280_pressure;Samples;Min_cycle;Max_cycle;Signal;HPM_P1;HPM_P2
2024/04/19 00:01:54;;;;;;;20.43;7.93;;;;;;;;;;5507847;26;20266;-61
2024/04/19 00:04:20;;;;;;;21.52;7.18;;;;;;;;;;5511212;26;20348;-60
2024/04/19 00:06:45;;;;;;;18.47;8.13;;;;;;;;;;5511099;26;20069;-60
2024/04/19 00:09:11;;;;;;;19.15;8.23;;;;;;;;;;5511396;26;20583;-60
2024/04/19 00:11:37;;;;;;;27.97;7.90;;;;;;;;;;5511235;26;19994;-61
2024/04/19 00:14:03;;;;;;;19.80;8.38;;;;;;;;;;5488199;26;19986;-60
2024/04/19 00:16:28;;;;;;;22.13;8.88;;;;;;;;;;5510081;26;20008;-61
2024/04/19 00:18:53;;;;;;;23.03;9.77;;;;;;;;;;5509601;26;19994;-61
2024/04/19 00:21:19;;;;;;;18.85;8.30;;;;;;;;;;5510637;26;19990;-60
2024/04/19 00:23:44;;;;;;;25.47;10.00;;;;;;;;;;5511399;26;20002;-61
2024/04/19 00:26:10;;;;;;;23.25;10.05;;;;;;;;;;5511589;26;19994;-60
2024/04/19 00:28:36;;;;;;;21.77;11.03;;;;;;;;;;5510760;26;20000;-59
2024/04/19 00:31:02;;;;;;;21.35;10.57;;;;;;;;;;5511210;26;20231;-61
2024/04/19 00:33:27;;;;;;;22.10;10.43;;;;;;;;;;5510882;26;19998;-60
2024/04/19 00:35:53;;;;;;;22.63;10.47;;;;;;;;;;5511459;26;20013;-61
2024/04/19 00:38:18;;;;;;;22.33;9.93;;;;;;;;;;5509822;26;20004;-61
2024/04/19 00:40:43;;;;;;;25.87;11.20;;;;;;;;;;5498546;26;19994;-60
2024/04/19 00:43:09;;;;;;;26.35;10.55;;;;;;;;;;5511231;26;20002;-61
2024/04/19 00:45:35;;;;;;;24.70;10.38;;;;;;;;;;5511574;26;20002;-60
2024/04/19 00:48:03;;;;;;;23.48;10.93;;;;;;;;;;5510460;26;19994;-60
2024/04/19 00:50:51;;;;;;;31.40;10.88;;;;;;;;;;5498769;26;20053;-61
2024/04/19 00:53:20;;;;;;;31.52;10.18;;;;;;;;;;5510558;26;20005;-60
2024/04/19 00:55:46;;;;;;;24.10;9.07;;;;;;;;;;5511005;26;19990;-61
2024/04/19 00:58:12;;;;;;;32.75;10.43;;;;;;;;;;5510006;26;20005;-60
2024/04/19 01:00:38;;;;;;;33.28;10.43;;;;;;;;;;5510003;26;19998;-59
2024/04/19 01:03:03;;;;;;;31.17;10.10;;;;;;;;;;5509393;26;20018;-61
2024/04/19 01:05:28;;;;;;;45.90;13.43;;;;;;;;;;5509249;26;20068;-61
2024/04/19 01:07:54;;;;;;;33.67;10.40;;;;;;;;;;5507140;26;20009;-61
2024/04/19 01:10:20;;;;;;;29.50;8.80;;;;;;;;;;5510196;26;19998;-60
2024/04/19 01:12:45;;;;;;;25.07;8.77;;;;;;;;;;5510178;26;20215;-60
2024/04/19 01:15:14;;;;;;;22.85;7.10;;;;;;;;;;5510141;26;20009;-60
2024/04/19 01:17:40;;;;;;;13.93;6.47;;;;;;;;;;5505921;26;20002;-61
2024/04/19 01:20:05;;;;;;;11.80;6.27;;;;;;;;;;5509946;26;20013;-61
2024/04/19 01:22:33;;;;;;;16.10;6.85;;;;;;;;;;5508777;26;20013;-61
2024/04/19 01:24:59;;;;;;;18.37;7.10;;;;;;;;;;5510742;26;20018;-60
2024/04/19 01:27:25;;;;;;;15.48;7.10;;;;;;;;;;5509740;26;19998;-61
2024/04/19 01:29:51;;;;;;;15.88;7.07;;;;;;;;;;5504029;26;20002;-61
2024/04/19 01:32:16;;;;;;;31.03;6.97;;;;;;;;;;5507049;26;20017;-60
2024/04/19 01:34:42;;;;;;;22.50;6.97;;;;;;;;;;5510298;26;20024;-60
2024/04/19 01:37:07;;;;;;;14.20;7.95;;;;;;;;;;5510107;26;20002;-62
2024/04/19 01:39:33;;;;;;;17.80;7.13;;;;;;;;;;5499515;26;20049;-60
2024/04/19 01:41:58;;;;;;;17.27;8.60;;;;;;;;;;5510324;26;20009;-60
2024/04/19 01:44:24;;;;;;;31.33;9.00;;;;;;;;;;5509906;26;20006;-60
2024/04/19 01:46:50;;;;;;;25.77;10.15;;;;;;;;;;5510571;26;19998;-61
2024/04/19 01:49:15;;;;;;;35.25;10.82;;;;;;;;;;5509297;26;20010;-61
2024/04/19 01:51:40;;;;;;;24.37;10.83;;;;;;;;;;5509970;26;20010;-61
2024/04/19 01:54:05;;;;;;;33.43;11.23;;;;;;;;;;5507319;26;20016;-60
2024/04/19 01:56:31;;;;;;;30.17;10.60;;;;;;;;;;5509680;26;20030;-61
2024/04/19 01:58:56;;;;;;;24.37;9.67;;;;;;;;;;5507026;26;20055;-61
2024/04/19 02:01:22;;;;;;;26.27;9.87;;;;;;;;;;5510120;26;20227;-61
2024/04/19 02:03:47;;;;;;;18.23;9.73;;;;;;;;;;5510178;26;19998;-62
2024/04/19 02:06:14;;;;;;;16.33;9.32;;;;;;;;;;5510242;26;20840;-60
2024/04/19 02:08:39;;;;;;;20.02;9.48;;;;;;;;;;5508715;26;20001;-61
2024/04/19 02:11:04;;;;;;;18.97;9.67;;;;;;;;;;5509942;26;20002;-61
2024/04/19 02:13:30;;;;;;;22.38;9.38;;;;;;;;;;5509821;26;20048;-61
2024/04/19 02:15:56;;;;;;;16.13;8.40;;;;;;;;;;5510008;26;20017;-62
2024/04/19 02:18:21;;;;;;;18.63;9.70;;;;;;;;;;5509318;26;20026;-62
2024/04/19 02:20:47;;;;;;;18.20;9.48;;;;;;;;;;5508857;26;20047;-62
2024/04/19 02:23:12;;;;;;;26.33;9.57;;;;;;;;;;5509869;26;19994;-62
2024/04/19 02:25:38;;;;;;;28.65;8.90;;;;;;;;;;5509656;26;20470;-61
2024/04/19 02:30:59;;;;;;;23.95;9.02;;;;;;;;;;5509661;26;20018;-62
2024/04/19 02:33:25;;;;;;;22.05;10.32;;;;;;;;;;5509524;26;20051;-62
2024/04/19 02:35:51;;;;;;;28.92;11.07;;;;;;;;;;5510245;26;19998;-62
2024/04/19 02:38:16;;;;;;;26.02;10.32;;;;;;;;;;5509037;26;20027;-61
2024/04/19 02:40:41;;;;;;;20.40;12.20;;;;;;;;;;5509558;26;20218;-62
2024/04/19 02:43:07;;;;;;;25.27;12.07;;;;;;;;;;5509508;26;20014;-62
2024/04/19 02:45:37;;;;;;;27.97;11.27;;;;;;;;;;5509578;26;19994;-61
2024/04/19 02:48:04;;;;;;;26.25;13.20;;;;;;;;;;5509073;26;20056;-62
2024/04/19 02:50:30;;;;;;;22.95;12.65;;;;;;;;;;5494113;26;20002;-61
2024/04/19 02:53:13;;;;;;;22.80;11.85;;;;;;;;;;5506708;26;20006;-61
2024/04/19 02:55:38;;;;;;;24.88;12.77;;;;;;;;;;5509011;26;20031;-62
2024/04/19 02:58:04;;;;;;;21.50;12.38;;;;;;;;;;5509088;26;20017;-61
2024/04/19 03:00:47;;;;;;;25.58;12.05;;;;;;;;;;5508855;26;20013;-61
2024/04/19 03:03:13;;;;;;;21.02;11.32;;;;;;;;;;5509141;26;20002;-61
2024/04/19 03:05:38;;;;;;;22.13;11.33;;;;;;;;;;5509117;26;20059;-61
2024/04/19 03:08:04;;;;;;;23.65;10.98;;;;;;;;;;5509208;26;20018;-61
2024/04/19 03:10:29;;;;;;;33.80;11.57;;;;;;;;;;5508320;26;20002;-61
2024/04/19 03:12:54;;;;;;;26.17;11.40;;;;;;;;;;5508422;26;20002;-61
2024/04/19 03:15:20;;;;;;;22.48;10.73;;;;;;;;;;5508870;26;20030;-61
2024/04/19 03:17:46;;;;;;;18.00;10.60;;;;;;;;;;5508697;26;19990;-61
2024/04/19 03:20:11;;;;;;;22.37;11.67;;;;;;;;;;5507774;26;20259;-61
2024/04/19 03:22:37;;;;;;;22.70;11.57;;;;;;;;;;5492790;26;20057;-62
2024/04/19 03:25:02;;;;;;;23.33;11.55;;;;;;;;;;5505037;26;20061;-61
2024/04/19 03:27:28;;;;;;;28.17;12.20;;;;;;;;;;5508504;26;19995;-61
2024/04/19 03:29:57;;;;;;;24.90;12.87;;;;;;;;;;5504581;26;20007;-62
2024/04/19 03:32:23;;;;;;;20.33;11.85;;;;;;;;;;5488702;26;20031;-61
2024/04/19 03:34:48;;;;;;;25.17;13.20;;;;;;;;;;5507494;26;19994;-62
2024/04/19 03:37:14;;;;;;;25.80;14.45;;;;;;;;;;5510565;26;20002;-61
2024/04/19 03:39:41;;;;;;;28.98;16.55;;;;;;;;;;5511502;26;20055;-61
2024/04/19 03:42:11;;;;;;;32.10;16.52;;;;;;;;;;5511708;26;20002;-63
2024/04/19 03:47:23;;;;;;;30.10;16.42;;;;;;;;;;5511803;26;20008;-62
2024/04/19 03:49:49;;;;;;;31.00;16.50;;;;;;;;;;5509089;26;19990;-62
2024/04/19 03:52:15;;;;;;;31.70;17.42;;;;;;;;;;5509548;26;20010;-62
2024/04/19 03:54:43;;;;;;;34.00;15.70;;;;;;;;;;5510863;26;20037;-61
2024/04/19 03:57:09;;;;;;;30.17;16.05;;;;;;;;;;5510559;26;20239;-62
2024/04/19 03:59:35;;;;;;;28.85;16.63;;;;;;;;;;5510668;26;20013;-61
2024/04/19 04:02:13;;;;;;;30.10;16.00;;;;;;;;;;5509389;26;19998;-62
2024/04/19 04:04:52;;;;;;;34.00;16.05;;;;;;;;;;5512592;26;20070;-62
2024/04/19 04:07:18;;;;;;;28.55;15.02;;;;;;;;;;5511951;26;20002;-66
2024/04/19 04:09:43;;;;;;;21.97;13.67;;;;;;;;;;5511536;26;20017;-62
2024/04/19 04:12:09;;;;;;;26.70;13.77;;;;;;;;;;5506906;26;20013;-62
2024/04/19 04:14:36;;;;;;;26.88;14.88;;;;;;;;;;5511640;26;20047;-62
2024/04/19 04:17:01;;;;;;;24.50;13.07;;;;;;;;;;5510785;26;20002;-62
2024/04/19 04:19:27;;;;;;;24.60;13.37;;;;;;;;;;5511401;26;20002;-62
2024/04/19 04:21:52;;;;;;;24.93;13.90;;;;;;;;;;5511386;26;20279;-62
2024/04/19 04:24:18;;;;;;;19.77;11.77;;;;;;;;;;5511495;26;20224;-61
2024/04/19 04:26:43;;;;;;;19.60;11.47;;;;;;;;;;5511385;26;20306;-62
2024/04/19 04:29:09;;;;;;;22.30;12.35;;;;;;;;;;5511176;26;20012;-61
2024/04/19 04:31:35;;;;;;;24.02;11.93;;;;;;;;;;5511031;26;20017;-62
2024/04/19 04:34:00;;;;;;;33.80;11.18;;;;;;;;;;5511436;26;19998;-62
2024/04/19 04:36:26;;;;;;;26.60;11.40;;;;;;;;;;5488588;26;20025;-62
2024/04/19 04:38:51;;;;;;;17.50;10.57;;;;;;;;;;5511551;26;20260;-62
2024/04/19 04:41:18;;;;;;;21.37;10.07;;;;;;;;;;5508920;26;20274;-62
2024/04/19 04:43:43;;;;;;;22.30;10.95;;;;;;;;;;5511237;26;20013;-61
2024/04/19 04:46:09;;;;;;;31.15;11.00;;;;;;;;;;5511023;26;20009;-62
2024/04/19 04:48:34;;;;;;;30.77;11.15;;;;;;;;;;5509486;26;20010;-62
2024/04/19 04:51:00;;;;;;;16.40;9.55;;;;;;;;;;5510651;26;20010;-62
2024/04/19 04:53:26;;;;;;;15.48;10.18;;;;;;;;;;5510864;26;19998;-62
2024/04/19 04:55:53;;;;;;;25.53;10.60;;;;;;;;;;5510989;26;19998;-62
2024/04/19 04:58:19;;;;;;;28.70;10.00;;;;;;;;;;5511384;26;20048;-61
2024/04/19 05:00:44;;;;;;;18.67;10.13;;;;;;;;;;5503724;26;20014;-62
2024/04/19 05:03:09;;;;;;;29.13;10.43;;;;;;;;;;5510800;26;20009;-61
2024/04/19 05:05:35;;;;;;;41.80;14.33;;;;;;;;;;5510697;26;19994;-62
2024/04/19 05:08:00;;;;;;;41.27;14.60;;;;;;;;;;5511089;26;20255;-62
2024/04/19 05:10:26;;;;;;;53.72;19.30;;;;;;;;;;5509949;26;20121;-62
2024/04/19 05:12:51;;;;;;;66.97;21.83;;;;;;;;;;5510799;26;20002;-62
2024/04/19 05:15:17;;;;;;;49.03;18.35;;;;;;;;;;5510099;26;20070;-63
2024/04/19 05:17:45;;;;;;;39.20;15.70;;;;;;;;;;5510785;26;19995;-62
2024/04/19 05:20:11;;;;;;;38.55;14.80;;;;;;;;;;5510171;26;20002;-61
2024/04/19 05:22:37;;;;;;;29.07;13.97;;;;;;;;;;5510182;26;20090;-61
2024/04/19 05:25:07;;;;;;;25.48;13.90;;;;;;;;;;5510384;26;20231;-62
2024/04/19 05:27:33;;;;;;;32.00;15.27;;;;;;;;;;5510584;26;20002;-61
2024/04/19 05:29:58;;;;;;;29.10;13.83;;;;;;;;;;5510050;26;20287;-62
2024/04/19 05:32:23;;;;;;;36.00;14.33;;;;;;;;;;5510035;26;20231;-62
2024/04/19 05:34:49;;;;;;;36.27;14.30;;;;;;;;;;5509875;26;20239;-61
2024/04/19 05:37:15;;;;;;;32.30;12.90;;;;;;;;;;5510219;26;20002;-61
2024/04/19 05:39:40;;;;;;;28.67;12.98;;;;;;;;;;5509662;26;20059;-62
2024/04/19 05:42:06;;;;;;;29.63;13.13;;;;;;;;;;5509893;26;20002;-61
2024/04/19 05:44:31;;;;;;;30.45;13.95;;;;;;;;;;5509299;26;20010;-62
2024/04/19 05:46:58;;;;;;;29.75;13.52;;;;;;;;;;5510313;26;20002;-61
2024/04/19 05:49:24;;;;;;;33.65;12.73;;;;;;;;;;5509942;26;20009;-61
2024/04/19 05:51:49;;;;;;;32.77;12.30;;;;;;;;;;5509743;26;19998;-61
2024/04/19 05:54:15;;;;;;;32.78;13.13;;;;;;;;;;5510010;26;20309;-61
2024/04/19 05:56:40;;;;;;;31.97;12.27;;;;;;;;;;5510108;26;19998;-62
2024/04/19 05:59:08;;;;;;;32.17;12.60;;;;;;;;;;5509482;26;20013;-62
2024/04/19 06:01:33;;;;;;;32.10;12.70;;;;;;;;;;5509344;26;20047;-61
2024/04/19 06:03:59;;;;;;;32.43;12.40;;;;;;;;;;5510139;26;20219;-62
2024/04/19 06:06:24;;;;;;;29.47;11.63;;;;;;;;;;5509849;26;20239;-61
2024/04/19 06:08:50;;;;;;;26.47;12.03;;;;;;;;;;5510106;26;20305;-62
2024/04/19 06:11:16;;;;;;;31.15;11.52;;;;;;;;;;5508744;26;20005;-62
2024/04/19 06:13:42;;;;;;;28.57;10.83;;;;;;;;;;5509861;26;19999;-61
2024/04/19 06:16:10;;;;;;;30.48;11.30;;;;;;;;;;5509872;26;19998;-62
2024/04/19 06:18:35;;;;;;;27.88;10.82;;;;;;;;;;5509870;26;20024;-61
2024/04/19 06:21:01;;;;;;;25.70;10.97;;;;;;;;;;5509238;26;19994;-61
2024/04/19 06:23:26;;;;;;;30.80;11.67;;;;;;;;;;5509521;26;20267;-62
2024/04/19 06:25:53;;;;;;;30.40;11.13;;;;;;;;;;5509462;26;20275;-62
2024/04/19 06:28:19;;;;;;;27.27;9.40;;;;;;;;;;5510240;26;20271;-63
2024/04/19 06:30:44;;;;;;;20.90;8.97;;;;;;;;;;5509150;26;20223;-62
2024/04/19 06:33:10;;;;;;;28.50;8.73;;;;;;;;;;5509289;26;20538;-63
2024/04/19 06:35:37;;;;;;;22.85;7.68;;;;;;;;;;5509651;26;20020;-62
2024/04/19 06:38:02;;;;;;;18.20;7.13;;;;;;;;;;5509695;26;20033;-63
2024/04/19 06:40:28;;;;;;;22.67;6.17;;;;;;;;;;5508673;26;20235;-62
2024/04/19 06:42:54;;;;;;;20.00;5.87;;;;;;;;;;5509522;26;20250;-61
2024/04/19 06:45:19;;;;;;;16.75;5.07;;;;;;;;;;5509474;26;20004;-62
2024/04/19 06:47:45;;;;;;;14.40;5.80;;;;;;;;;;5509681;26;19995;-62
2024/04/19 06:50:11;;;;;;;18.10;4.63;;;;;;;;;;5508940;26;20009;-63
2024/04/19 06:52:37;;;;;;;21.35;4.35;;;;;;;;;;5496287;26;19995;-62
2024/04/19 06:55:02;;;;;;;21.00;5.78;;;;;;;;;;5509287;26;19998;-62
2024/04/19 06:57:28;;;;;;;19.95;5.50;;;;;;;;;;5509211;26;20047;-62
2024/04/19 06:59:53;;;;;;;31.00;6.63;;;;;;;;;;5498906;26;20013;-62
2024/04/19 07:02:18;;;;;;;17.37;5.13;;;;;;;;;;5507730;26;20014;-62
2024/04/19 07:04:43;;;;;;;24.20;6.57;;;;;;;;;;5506146;26;20367;-63
2024/04/19 07:07:08;;;;;;;21.67;6.73;;;;;;;;;;5508194;26;20006;-63
2024/04/19 07:09:34;;;;;;;24.27;6.53;;;;;;;;;;5509220;26;20009;-62
2024/04/19 07:12:00;;;;;;;23.58;5.93;;;;;;;;;;5508506;26;20026;-63
2024/04/19 07:14:25;;;;;;;57.75;8.10;;;;;;;;;;5511949;26;19994;-63
2024/04/19 07:16:51;;;;;;;33.13;6.65;;;;;;;;;;5512382;26;19994;-62
2024/04/19 07:19:16;;;;;;;172.40;14.57;;;;;;;;;;5512927;26;19998;-62
2024/04/19 07:21:41;;;;;;;26.17;6.80;;;;;;;;;;5511699;26;20003;-63
2024/04/19 07:24:07;;;;;;;91.43;10.00;;;;;;;;;;5512440;26;20002;-62
2024/04/19 07:26:34;;;;;;;19.57;6.83;;;;;;;;;;5511825;26;20010;-62
2024/04/19 07:29:00;;;;;;;19.97;6.07;;;;;;;;;;5512374;26;20005;-63
2024/04/19 07:31:26;;;;;;;30.08;6.53;;;;;;;;;;5511772;26;20245;-63
2024/04/19 07:33:51;;;;;;;20.48;6.28;;;;;;;;;;5512300;26;20047;-64
2024/04/19 07:36:17;;;;;;;17.50;5.35;;;;;;;;;;5507815;26;19998;-63
2024/04/19 07:38:42;;;;;;;30.40;6.27;;;;;;;;;;5512404;26;20002;-64
2024/04/19 07:41:09;;;;;;;23.10;6.65;;;;;;;;;;5511658;26;20002;-64
2024/04/19 07:43:34;;;;;;;30.83;5.88;;;;;;;;;;5511988;26;20009;-63
2024/04/19 07:46:00;;;;;;;17.33;5.07;;;;;;;;;;5512456;26;19998;-63
2024/04/19 07:48:26;;;;;;;28.25;7.93;;;;;;;;;;5512050;26;20006;-63
2024/04/19 07:50:51;;;;;;;16.83;5.32;;;;;;;;;;5511104;26;20009;-63
2024/04/19 07:53:19;;;;;;;17.63;5.07;;;;;;;;;;5510950;26;19994;-64
2024/04/19 07:55:45;;;;;;;30.70;6.63;;;;;;;;;;5510379;26;20006;-62
2024/04/19 07:58:10;;;;;;;25.15;6.18;;;;;;;;;;5511484;26;20235;-62
2024/04/19 08:00:36;;;;;;;33.87;5.60;;;;;;;;;;5511517;26;19994;-62
2024/04/19 08:03:03;;;;;;;27.67;6.22;;;;;;;;;;5510802;26;20004;-63
2024/04/19 08:05:28;;;;;;;21.83;4.78;;;;;;;;;;5509957;26;20026;-62
2024/04/19 08:07:54;;;;;;;24.07;5.13;;;;;;;;;;5511907;26;20073;-63
2024/04/19 08:10:22;;;;;;;20.42;5.80;;;;;;;;;;5511497;26;20276;-63
2024/04/19 08:12:48;;;;;;;20.90;5.27;;;;;;;;;;5511287;26;20075;-63
2024/04/19 08:15:13;;;;;;;28.20;5.33;;;;;;;;;;5506088;26;20239;-63
2024/04/19 08:17:40;;;;;;;14.10;4.23;;;;;;;;;;5510539;26;20056;-63
2024/04/19 08:20:07;;;;;;;17.90;5.27;;;;;;;;;;5508773;26;20002;-63
2024/04/19 08:22:32;;;;;;;18.27;5.57;;;;;;;;;;5508223;26;20219;-62
2024/04/19 08:24:59;;;;;;;21.08;4.72;;;;;;;;;;5489325;26;20056;-63
2024/04/19 08:27:24;;;;;;;25.02;5.15;;;;;;;;;;5511427;26;19998;-62
2024/04/19 08:29:50;;;;;;;27.38;5.55;;;;;;;;;;5511613;26;19998;-63
2024/04/19 08:32:15;;;;;;;16.98;4.60;;;;;;;;;;5510746;26;19998;-63
2024/04/19 08:34:41;;;;;;;21.20;4.70;;;;;;;;;;5508756;26;20009;-63
2024/04/19 08:37:06;;;;;;;12.60;4.60;;;;;;;;;;5511344;26;19994;-63
2024/04/19 08:39:32;;;;;;;14.73;3.70;;;;;;;;;;5511626;26;20039;-63
2024/04/19 08:42:01;;;;;;;24.17;4.80;;;;;;;;;;5510739;26;19997;-62
2024/04/19 08:44:28;;;;;;;24.97;6.83;;;;;;;;;;5511003;26;19998;-63
2024/04/19 08:46:53;;;;;;;;;;;;;;;;;;5512144;26;20223;-64
2024/04/19 08:49:19;;;;;;;16.13;3.97;;;;;;;;;;5510716;26;19923;-63
2024/04/19 08:51:45;;;;;;;11.75;3.78;;;;;;;;;;5510316;26;19990;-63
2024/04/19 08:54:11;;;;;;;15.00;4.50;;;;;;;;;;5510244;26;20048;-63
2024/04/19 08:56:38;;;;;;;16.73;4.45;;;;;;;;;;5509750;26;20002;-63
2024/04/19 08:59:03;;;;;;;18.05;4.07;;;;;;;;;;5510932;26;19990;-63
2024/04/19 09:01:30;;;;;;;14.20;3.57;;;;;;;;;;5510744;26;20013;-64
2024/04/19 09:03:56;;;;;;;11.20;4.13;;;;;;;;;;5508679;26;20224;-62
2024/04/19 09:06:24;;;;;;;23.90;5.27;;;;;;;;;;5511107;26;19995;-62
2024/04/19 09:08:50;;;;;;;15.67;4.50;;;;;;;;;;5510134;26;20281;-62
2024/04/19 09:11:16;;;;;;;9.50;3.42;;;;;;;;;;5510960;26;20227;-61
2024/04/19 09:13:43;;;;;;;11.10;3.03;;;;;;;;;;5510023;26;20002;-63
2024/04/19 09:16:09;;;;;;;17.33;4.27;;;;;;;;;;5511223;26;20051;-62
2024/04/19 09:18:35;;;;;;;12.07;3.45;;;;;;;;;;5509551;26;20231;-62
2024/04/19 09:21:03;;;;;;;10.10;3.30;;;;;;;;;;5510151;26;20009;-62
2024/04/19 09:23:29;;;;;;;11.93;2.58;;;;;;;;;;5509282;26;20227;-62
2024/04/19 09:25:57;;;;;;;12.25;2.53;;;;;;;;;;5511185;26;20008;-61
2024/04/19 09:28:22;;;;;;;19.40;2.60;;;;;;;;;;5509749;26;20033;-62
2024/04/19 09:30:52;;;;;;;14.32;2.85;;;;;;;;;;5509904;26;19994;-61
2024/04/19 09:33:20;;;;;;;10.10;2.80;;;;;;;;;;5510010;26;20007;-62
2024/04/19 09:35:45;;;;;;;5.82;2.08;;;;;;;;;;5509375;26;20235;-61
2024/04/19 09:38:12;;;;;;;4.43;1.83;;;;;;;;;;5510459;26;19998;-61
2024/04/19 09:40:38;;;;;;;11.00;2.47;;;;;;;;;;5509362;26;20009;-61
2024/04/19 09:43:06;;;;;;;10.82;2.15;;;;;;;;;;5506047;26;20271;-60
2024/04/19 09:45:38;;;;;;;8.77;2.40;;;;;;;;;;5508677;26;20005;-60
2024/04/19 09:48:05;;;;;;;6.90;1.90;;;;;;;;;;5510260;26;20234;-61
2024/04/19 09:50:32;;;;;;;5.30;1.80;;;;;;;;;;5509125;26;20231;-61
2024/04/19 09:53:00;;;;;;;7.30;2.00;;;;;;;;;;5509056;26;20247;-60
2024/04/19 09:55:28;;;;;;;4.13;1.70;;;;;;;;;;5510010;26;20227;-60
2024/04/19 09:57:54;;;;;;;10.43;1.97;;;;;;;;;;5509652;26;20310;-60
2024/04/19 10:00:23;;;;;;;5.03;2.15;;;;;;;;;;5510086;26;20227;-60
2024/04/19 10:02:49;;;;;;;3.57;1.60;;;;;;;;;;5508456;26;19994;-61
2024/04/19 10:05:14;;;;;;;5.28;2.03;;;;;;;;;;5504702;26;20301;-60
2024/04/19 10:07:40;;;;;;;9.13;1.37;;;;;;;;;;5509573;26;20009;-60
2024/04/19 10:10:06;;;;;;;5.85;1.40;;;;;;;;;;5509410;26;19998;-60
2024/04/19 10:12:32;;;;;;;2.87;1.00;;;;;;;;;;5508204;26;20018;-60
2024/04/19 10:14:57;;;;;;;;;;;;;;;;;;5509024;26;20002;-61
2024/04/19 10:17:23;;;;;;;1.63;0.60;;;;;;;;;;5508846;26;19931;-61
2024/04/19 10:19:48;;;;;;;2.80;1.17;;;;;;;;;;5509550;26;19994;-60
2024/04/19 10:22:18;;;;;;;7.13;0.93;;;;;;;;;;5509842;26;20006;-61
2024/04/19 10:24:43;;;;;;;2.67;1.07;;;;;;;;;;5508499;26;20005;-61
2024/04/19 10:27:10;;;;;;;3.45;0.85;;;;;;;;;;5509637;26;20215;-61
2024/04/19 10:29:36;;;;;;;2.10;0.70;;;;;;;;;;5509482;26;20040;-60
2024/04/19 10:32:02;;;;;;;3.95;1.02;;;;;;;;;;5509137;26;19998;-60
2024/04/19 10:34:27;;;;;;;1.38;0.70;;;;;;;;;;5508713;26;19994;-60
2024/04/19 10:36:53;;;;;;;3.20;1.27;;;;;;;;;;5509539;26;20004;-60
2024/04/19 10:39:19;;;;;;;8.23;1.00;;;;;;;;;;5508371;26;19994;-60
2024/04/19 10:41:52;;;;;;;2.38;0.85;;;;;;;;;;5507797;26;20005;-60
2024/04/19 10:44:21;;;;;;;3.73;1.07;;;;;;;;;;5496082;26;19997;-60
2024/04/19 10:46:49;;;;;;;5.13;1.23;;;;;;;;;;5509122;26;20012;-60
2024/04/19 10:49:16;;;;;;;3.67;0.87;;;;;;;;;;5508187;26;20070;-60
2024/04/19 10:51:42;;;;;;;2.50;0.90;;;;;;;;;;5509327;26;20013;-60
2024/04/19 10:54:08;;;;;;;4.10;1.33;;;;;;;;;;5508389;26;20239;-60
2024/04/19 10:56:36;;;;;;;3.90;1.17;;;;;;;;;;5508829;26;20231;-60
2024/04/19 10:59:02;;;;;;;4.47;1.67;;;;;;;;;;5508935;26;19998;-60
2024/04/19 11:01:28;;;;;;;10.73;1.77;;;;;;;;;;5509090;26;20267;-59
2024/04/19 11:03:53;;;;;;;7.10;1.80;;;;;;;;;;5505707;26;20006;-60
2024/04/19 11:06:19;;;;;;;8.02;1.63;;;;;;;;;;5495671;26;19999;-59
2024/04/19 11:08:45;;;;;;;9.60;1.63;;;;;;;;;;5500018;26;20020;-60
2024/04/19 11:11:10;;;;;;;12.82;2.80;;;;;;;;;;5508551;26;20002;-61
2024/04/19 11:13:36;;;;;;;12.95;1.90;;;;;;;;;;5507653;26;20102;-60
2024/04/19 11:16:01;;;;;;;19.55;2.60;;;;;;;;;;5508489;26;20002;-60
2024/04/19 11:18:28;;;;;;;10.05;1.77;;;;;;;;;;5508586;26;19998;-59
2024/04/19 11:20:53;;;;;;;9.20;1.60;;;;;;;;;;5508827;26;20047;-60
2024/04/19 11:23:19;;;;;;;14.60;2.35;;;;;;;;;;5508091;26;20259;-59
2024/04/19 11:25:45;;;;;;;14.40;2.35;;;;;;;;;;5505715;26;19999;-60
2024/04/19 11:28:11;;;;;;;11.48;2.00;;;;;;;;;;5507960;26;20017;-60
2024/04/19 11:30:40;;;;;;;9.05;1.83;;;;;;;;;;5494573;26;20044;-60
2024/04/19 11:33:09;;;;;;;10.63;2.17;;;;;;;;;;5500857;26;20036;-59
2024/04/19 11:35:39;;;;;;;7.80;1.77;;;;;;;;;;5508205;26;19999;-59
2024/04/19 11:38:05;;;;;;;14.43;2.60;;;;;;;;;;5506883;26;19994;-60
2024/04/19 11:40:31;;;;;;;5.82;1.95;;;;;;;;;;5506925;26;20044;-58
2024/04/19 11:42:56;;;;;;;7.15;1.58;;;;;;;;;;5507153;26;19990;-60
2024/04/19 11:45:22;;;;;;;6.82;1.80;;;;;;;;;;5507201;26;20020;-59
2024/04/19 11:47:48;;;;;;;3.73;1.40;;;;;;;;;;5507672;26;20005;-60
2024/04/19 11:50:13;;;;;;;7.53;2.22;;;;;;;;;;5508247;26;19998;-61
2024/04/19 11:52:39;;;;;;;6.55;1.08;;;;;;;;;;5506569;26;20057;-60
2024/04/19 11:55:04;;;;;;;4.37;1.63;;;;;;;;;;5507163;26;20005;-59
2024/04/19 11:57:30;;;;;;;4.38;0.95;;;;;;;;;;5508228;26;19994;-60
2024/04/19 11:59:56;;;;;;;7.63;1.27;;;;;;;;;;5511387;26;20008;-58
2024/04/19 12:02:21;;;;;;;6.50;1.50;;;;;;;;;;5510712;26;20005;-60
2024/04/19 12:04:46;;;;;;;3.75;1.42;;;;;;;;;;5510829;26;19994;-60
2024/04/19 12:07:12;;;;;;;5.22;1.40;;;;;;;;;;5510892;26;19994;-60
2024/04/19 12:09:39;;;;;;;4.32;1.38;;;;;;;;;;5511260;26;20047;-60
2024/04/19 12:12:05;;;;;;;9.23;2.27;;;;;;;;;;5511421;26;19998;-60
2024/04/19 12:14:34;;;;;;;10.00;2.05;;;;;;;;;;5505317;26;20009;-59
2024/04/19 12:17:08;;;;;;;8.67;2.30;;;;;;;;;;5510745;26;19994;-60
2024/04/19 12:19:36;;;;;;;5.23;1.30;;;;;;;;;;5509082;26;20017;-60
2024/04/19 12:22:01;;;;;;;6.07;1.40;;;;;;;;;;5510056;26;20002;-61
2024/04/19 12:24:27;;;;;;;;;;;;;;;;;;5509779;26;20012;-60
2024/04/19 12:26:52;;;;;;;5.87;1.53;;;;;;;;;;5508839;26;19924;-60
2024/04/19 12:29:19;;;;;;;6.93;1.17;;;;;;;;;;5510517;26;20009;-59
2024/04/19 12:31:45;;;;;;;4.50;1.40;;;;;;;;;;5510891;26;20010;-61
2024/04/19 12:34:11;;;;;;;9.27;1.98;;;;;;;;;;5509416;26;20026;-60
2024/04/19 12:36:36;;;;;;;14.45;2.58;;;;;;;;;;5503771;26;20128;-60
2024/04/19 12:39:02;;;;;;;5.97;1.38;;;;;;;;;;5511200;26;20002;-60
2024/04/19 12:41:31;;;;;;;;;;;;;;;;;;5510104;26;19990;-61
2024/04/19 12:43:57;;;;;;;7.57;1.73;;;;;;;;;;5492288;26;19931;-61
2024/04/19 12:46:23;;;;;;;7.07;1.50;;;;;;;;;;5510325;26;20055;-60
2024/04/19 12:48:51;;;;;;;3.72;1.30;;;;;;;;;;5510779;26;20006;-61
2024/04/19 12:51:23;;;;;;;9.57;2.27;;;;;;;;;;5510933;26;20048;-59
2024/04/19 12:53:48;;;;;;;8.03;2.10;;;;;;;;;;5499403;26;20001;-60
2024/04/19 12:56:14;;;;;;;8.32;1.83;;;;;;;;;;5510397;26;20095;-60
2024/04/19 12:58:40;;;;;;;8.00;1.50;;;;;;;;;;5510984;26;20013;-59
2024/04/19 13:01:05;;;;;;;5.85;1.52;;;;;;;;;;5510663;26;20047;-60
2024/04/19 13:03:31;;;;;;;4.15;1.35;;;;;;;;;;5510610;26;20009;-60
2024/04/19 13:05:56;;;;;;;8.05;1.73;;;;;;;;;;5508466;26;20014;-60
2024/04/19 13:08:22;;;;;;;9.23;1.90;;;;;;;;;;5510587;26;20009;-60
2024/04/19 13:10:47;;;;;;;7.17;1.67;;;;;;;;;;5510015;26;20002;-60
2024/04/19 13:13:14;;;;;;;5.90;1.23;;;;;;;;;;5510722;26;20002;-60
2024/04/19 13:15:40;;;;;;;5.57;1.50;;;;;;;;;;5510161;26;20051;-60
2024/04/19 13:18:06;;;;;;;4.20;1.40;;;;;;;;;;5506843;26;20294;-60
2024/04/19 13:20:31;;;;;;;7.13;2.63;;;;;;;;;;5510361;26;20014;-59
2024/04/19 13:22:56;;;;;;;5.05;1.92;;;;;;;;;;5510118;26;20013;-60
2024/04/19 13:25:22;;;;;;;9.70;1.90;;;;;;;;;;5509759;26;20017;-60
2024/04/19 13:27:47;;;;;;;5.03;1.60;;;;;;;;;;5509619;26;20008;-60
2024/04/19 13:30:13;;;;;;;14.43;1.93;;;;;;;;;;5510265;26;20723;-59
2024/04/19 13:32:38;;;;;;;;;;;;;;;;;;5511008;26;20013;-61
2024/04/19 13:35:04;;;;;;;7.18;1.58;;;;;;;;;;5510022;26;19940;-61
2024/04/19 13:37:29;;;;;;;;;;;;;;;;;;5510640;26;20039;-60
2024/04/19 13:39:55;;;;;;;6.40;1.90;;;;;;;;;;5510290;26;19969;-61
2024/04/19 13:42:20;;;;;;;;;;;;;;;;;;5509515;26;20001;-60
2024/04/19 13:44:45;;;;;;;8.30;2.40;;;;;;;;;;5509333;26;19924;-60
2024/04/19 13:47:12;;;;;;;;;;;;;;;;;;5501075;26;20014;-61
2024/04/19 13:49:39;;;;;;;7.00;2.03;;;;;;;;;;5509468;26;19931;-61
2024/04/19 13:52:05;;;;;;;6.50;2.03;;;;;;;;;;5510036;26;20010;-60
2024/04/19 13:54:30;;;;;;;;;;;;;;;;;;5509539;26;20017;-61
2024/04/19 13:56:56;;;;;;;5.33;1.47;;;;;;;;;;5492858;26;19924;-61
2024/04/19 13:59:21;;;;;;;;;;;;;;;;;;5497511;26;20029;-59
2024/04/19 14:01:50;;;;;;;11.47;2.20;;;;;;;;;;5502828;26;19923;-60
2024/04/19 14:04:16;;;;;;;13.57;2.60;;;;;;;;;;5491072;26;20014;-60
2024/04/19 14:06:42;;;;;;;11.93;2.08;;;;;;;;;;5490014;26;20315;-61
2024/04/19 14:09:07;;;;;;;9.43;2.53;;;;;;;;;;5486541;26;20022;-59
2024/04/19 14:11:33;;;;;;;11.65;2.60;;;;;;;;;;5494026;26;20009;-60
2024/04/19 14:13:59;;;;;;;11.13;2.50;;;;;;;;;;5499191;26;20002;-60
2024/04/19 14:16:25;;;;;;;6.82;1.90;;;;;;;;;;5499392;26;19994;-60
2024/04/19 14:18:52;;;;;;;8.33;2.00;;;;;;;;;;5503523;26;20064;-60
2024/04/19 14:21:17;;;;;;;13.13;1.57;;;;;;;;;;5501545;26;20022;-61
2024/04/19 14:23:47;;;;;;;;;;;;;;;;;;5499341;26;20006;-61
2024/04/19 14:26:18;;;;;;;9.83;2.17;;;;;;;;;;5502427;26;19935;-61
2024/04/19 14:28:43;;;;;;;9.30;1.80;;;;;;;;;;5499772;26;20146;-60
2024/04/19 14:31:08;;;;;;;9.88;2.70;;;;;;;;;;5496937;26;20007;-60
2024/04/19 14:33:34;;;;;;;9.33;2.10;;;;;;;;;;5486995;26;20017;-61